sensor_id;sensor_type;location;lat;lon;timestamp;P1;durP1;ratioP1;P2;durP2;ratioP2
69323;SDS011;56470;47.350;8.718;2023-12-20T01:54:30;13.10;;;6.33;;
69323;SDS011;56470;47.350;8.718;2023-12-20T01:57:19;8.48;;;4.40;;
69323;SDS011;56470;47.350;8.718;2023-12-20T02:00:48;14.57;;;6.68;;
69323;SDS011;56470;47.350;8.718;2023-12-20T02:06:51;12.70;;;7.20;;
69323;SDS011;56470;47.350;8.718;2023-12-20T02:16:55;11.50;;;6.50;;
69323;SDS011;56470;47.350;8.718;2023-12-20T02:23:37;13.60;;;6.85;;
69323;SDS011;56470;47.350;8.718;2023-12-20T05:55:38;3.13;;;1.60;;
69323;SDS011;56470;47.350;8.718;2023-12-20T06:04:30;4.40;;;2.20;;
69323;SDS011;56470;47.350;8.718;2023-12-20T06:38:00;6.40;;;3.80;;
69323;SDS011;56470;47.350;8.718;2023-12-20T06:40:26;5.90;;;3.50;;
69323;SDS011;56470;47.350;8.718;2023-12-20T06:42:51;7.47;;;3.50;;
69323;SDS011;56470;47.350;8.718;2023-12-20T06:45:17;6.60;;;3.43;;
69323;SDS011;56470;47.350;8.718;2023-12-20T06:47:42;6.20;;;3.57;;
69323;SDS011;56470;47.350;8.718;2023-12-20T06:50:07;7.57;;;3.77;;
69323;SDS011;56470;47.350;8.718;2023-12-20T06:52:33;7.35;;;4.05;;
69323;SDS011;56470;47.350;8.718;2023-12-20T06:55:00;8.55;;;4.32;;
69323;SDS011;56470;47.350;8.718;2023-12-20T06:57:25;7.17;;;4.10;;
69323;SDS011;56470;47.350;8.718;2023-12-20T06:59:51;7.00;;;3.78;;
69323;SDS011;56470;47.350;8.718;2023-12-20T07:02:17;10.03;;;4.90;;
69323;SDS011;56470;47.350;8.718;2023-12-20T07:04:42;9.00;;;4.37;;
69323;SDS011;56470;47.350;8.718;2023-12-20T07:07:07;7.73;;;4.37;;
69323;SDS011;56470;47.350;8.718;2023-12-20T07:09:33;9.27;;;4.47;;
69323;SDS011;56470;47.350;8.718;2023-12-20T07:11:58;6.73;;;3.20;;
69323;SDS011;56470;47.350;8.718;2023-12-20T07:14:24;8.40;;;4.53;;
69323;SDS011;56470;47.350;8.718;2023-12-20T07:16:49;7.37;;;4.00;;
69323;SDS011;56470;47.350;8.718;2023-12-20T07:19:15;7.87;;;3.33;;
69323;SDS011;56470;47.350;8.718;2023-12-20T07:21:40;5.03;;;2.10;;
69323;SDS011;56470;47.350;8.718;2023-12-20T07:24:05;10.05;;;4.55;;
69323;SDS011;56470;47.350;8.718;2023-12-20T07:26:31;8.60;;;4.30;;
69323;SDS011;56470;47.350;8.718;2023-12-20T07:28:56;9.63;;;4.00;;
69323;SDS011;56470;47.350;8.718;2023-12-20T07:31:23;7.43;;;3.63;;
69323;SDS011;56470;47.350;8.718;2023-12-20T07:33:49;8.17;;;4.53;;
69323;SDS011;56470;47.350;8.718;2023-12-20T07:36:14;8.73;;;4.67;;
69323;SDS011;56470;47.350;8.718;2023-12-20T07:38:39;6.67;;;3.93;;
69323;SDS011;56470;47.350;8.718;2023-12-20T07:41:08;9.45;;;4.47;;
69323;SDS011;56470;47.350;8.718;2023-12-20T07:43:34;6.70;;;3.40;;
69323;SDS011;56470;47.350;8.718;2023-12-20T07:46:03;6.17;;;3.07;;
69323;SDS011;56470;47.350;8.718;2023-12-20T07:48:33;7.75;;;3.55;;
69323;SDS011;56470;47.350;8.718;2023-12-20T07:51:02;5.68;;;2.80;;
69323;SDS011;56470;47.350;8.718;2023-12-20T07:53:29;5.07;;;2.97;;
69323;SDS011;56470;47.350;8.718;2023-12-20T07:55:55;6.87;;;4.10;;
69323;SDS011;56470;47.350;8.718;2023-12-20T07:58:20;7.00;;;4.32;;
69323;SDS011;56470;47.350;8.718;2023-12-20T08:00:46;7.10;;;3.73;;
69323;SDS011;56470;47.350;8.718;2023-12-20T08:03:11;7.80;;;4.57;;
69323;SDS011;56470;47.350;8.718;2023-12-20T08:05:37;8.67;;;4.00;;
69323;SDS011;56470;47.350;8.718;2023-12-20T08:08:05;7.10;;;3.95;;
69323;SDS011;56470;47.350;8.718;2023-12-20T08:10:31;8.35;;;4.78;;
69323;SDS011;56470;47.350;8.718;2023-12-20T08:12:56;4.50;;;2.77;;
69323;SDS011;56470;47.350;8.718;2023-12-20T08:15:22;7.53;;;3.70;;
69323;SDS011;56470;47.350;8.718;2023-12-20T08:17:47;6.60;;;3.00;;
69323;SDS011;56470;47.350;8.718;2023-12-20T08:20:12;6.40;;;3.87;;
69323;SDS011;56470;47.350;8.718;2023-12-20T08:22:38;8.68;;;3.83;;
69323;SDS011;56470;47.350;8.718;2023-12-20T08:25:03;4.17;;;2.20;;
69323;SDS011;56470;47.350;8.718;2023-12-20T08:27:29;6.57;;;3.55;;
69323;SDS011;56470;47.350;8.718;2023-12-20T08:29:56;6.80;;;4.20;;
69323;SDS011;56470;47.350;8.718;2023-12-20T08:32:21;7.27;;;4.00;;
69323;SDS011;56470;47.350;8.718;2023-12-20T08:34:46;7.05;;;3.65;;
69323;SDS011;56470;47.350;8.718;2023-12-20T08:37:12;7.03;;;3.93;;
69323;SDS011;56470;47.350;8.718;2023-12-20T08:39:37;5.93;;;3.50;;
69323;SDS011;56470;47.350;8.718;2023-12-20T08:42:02;5.83;;;3.33;;
69323;SDS011;56470;47.350;8.718;2023-12-20T08:44:28;6.88;;;3.55;;
69323;SDS011;56470;47.350;8.718;2023-12-20T08:46:53;6.57;;;3.20;;
69323;SDS011;56470;47.350;8.718;2023-12-20T08:49:22;7.72;;;3.90;;
69323;SDS011;56470;47.350;8.718;2023-12-20T08:51:47;6.00;;;3.40;;
69323;SDS011;56470;47.350;8.718;2023-12-20T08:54:12;8.10;;;4.23;;
69323;SDS011;56470;47.350;8.718;2023-12-20T08:56:38;9.77;;;4.00;;
69323;SDS011;56470;47.350;8.718;2023-12-20T08:59:03;6.47;;;3.27;;
69323;SDS011;56470;47.350;8.718;2023-12-20T09:01:28;9.53;;;3.10;;
69323;SDS011;56470;47.350;8.718;2023-12-20T09:03:54;8.50;;;3.23;;
69323;SDS011;56470;47.350;8.718;2023-12-20T09:06:19;7.90;;;3.03;;
69323;SDS011;56470;47.350;8.718;2023-12-20T09:08:44;6.00;;;3.23;;
69323;SDS011;56470;47.350;8.718;2023-12-20T09:11:10;6.43;;;3.10;;
69323;SDS011;56470;47.350;8.718;2023-12-20T09:13:35;6.32;;;3.58;;
69323;SDS011;56470;47.350;8.718;2023-12-20T09:16:00;5.13;;;3.13;;
69323;SDS011;56470;47.350;8.718;2023-12-20T09:18:27;5.88;;;2.65;;
69323;SDS011;56470;47.350;8.718;2023-12-20T09:20:52;5.60;;;2.77;;
69323;SDS011;56470;47.350;8.718;2023-12-20T09:23:18;7.23;;;3.53;;
69323;SDS011;56470;47.350;8.718;2023-12-20T09:25:43;7.40;;;3.70;;
69323;SDS011;56470;47.350;8.718;2023-12-20T09:28:09;7.30;;;3.33;;
69323;SDS011;56470;47.350;8.718;2023-12-20T09:30:34;7.03;;;3.88;;
69323;SDS011;56470;47.350;8.718;2023-12-20T09:33:02;6.72;;;3.08;;
69323;SDS011;56470;47.350;8.718;2023-12-20T09:35:28;6.50;;;3.10;;
69323;SDS011;56470;47.350;8.718;2023-12-20T09:37:53;6.07;;;3.50;;
69323;SDS011;56470;47.350;8.718;2023-12-20T09:40:19;7.03;;;2.87;;
69323;SDS011;56470;47.350;8.718;2023-12-20T09:42:48;7.35;;;3.67;;
69323;SDS011;56470;47.350;8.718;2023-12-20T09:45:21;6.32;;;3.05;;
69323;SDS011;56470;47.350;8.718;2023-12-20T09:47:47;6.17;;;2.87;;
69323;SDS011;56470;47.350;8.718;2023-12-20T09:50:14;5.72;;;2.92;;
69323;SDS011;56470;47.350;8.718;2023-12-20T09:52:41;8.27;;;3.15;;
69323;SDS011;56470;47.350;8.718;2023-12-20T09:55:08;6.22;;;2.50;;
69323;SDS011;56470;47.350;8.718;2023-12-20T09:57:34;6.78;;;3.15;;
69323;SDS011;56470;47.350;8.718;2023-12-20T10:00:00;5.83;;;2.87;;
69323;SDS011;56470;47.350;8.718;2023-12-20T10:02:25;8.37;;;3.83;;
69323;SDS011;56470;47.350;8.718;2023-12-20T10:04:52;8.05;;;3.78;;
69323;SDS011;56470;47.350;8.718;2023-12-20T10:07:19;7.70;;;4.07;;
69323;SDS011;56470;47.350;8.718;2023-12-20T10:09:44;7.20;;;4.10;;
69323;SDS011;56470;47.350;8.718;2023-12-20T10:12:11;7.07;;;3.78;;
69323;SDS011;56470;47.350;8.718;2023-12-20T10:14:38;5.90;;;2.77;;
69323;SDS011;56470;47.350;8.718;2023-12-20T10:17:04;5.85;;;3.28;;
69323;SDS011;56470;47.350;8.718;2023-12-20T10:19:30;7.03;;;3.10;;
69323;SDS011;56470;47.350;8.718;2023-12-20T10:21:57;5.95;;;2.80;;
69323;SDS011;56470;47.350;8.718;2023-12-20T10:24:24;5.30;;;2.90;;
69323;SDS011;56470;47.350;8.718;2023-12-20T10:27:00;7.00;;;3.58;;
69323;SDS011;56470;47.350;8.718;2023-12-20T10:29:33;7.93;;;4.07;;
69323;SDS011;56470;47.350;8.718;2023-12-20T10:32:00;6.73;;;3.17;;
69323;SDS011;56470;47.350;8.718;2023-12-20T10:34:47;4.90;;;2.10;;
69323;SDS011;56470;47.350;8.718;2023-12-20T10:37:13;5.87;;;2.70;;
69323;SDS011;56470;47.350;8.718;2023-12-20T10:39:38;5.95;;;2.97;;
69323;SDS011;56470;47.350;8.718;2023-12-20T10:42:04;5.47;;;3.05;;
69323;SDS011;56470;47.350;8.718;2023-12-20T10:44:30;3.97;;;1.77;;
69323;SDS011;56470;47.350;8.718;2023-12-20T10:46:56;4.83;;;2.23;;
69323;SDS011;56470;47.350;8.718;2023-12-20T10:49:23;5.63;;;2.50;;
69323;SDS011;56470;47.350;8.718;2023-12-20T10:51:50;4.32;;;2.10;;
69323;SDS011;56470;47.350;8.718;2023-12-20T10:54:19;4.93;;;2.28;;
69323;SDS011;56470;47.350;8.718;2023-12-20T10:56:44;6.40;;;2.30;;
69323;SDS011;56470;47.350;8.718;2023-12-20T10:59:11;3.15;;;1.70;;
69323;SDS011;56470;47.350;8.718;2023-12-20T11:01:36;3.87;;;1.70;;
69323;SDS011;56470;47.350;8.718;2023-12-20T11:04:05;3.60;;;1.65;;
69323;SDS011;56470;47.350;8.718;2023-12-20T11:09:35;3.92;;;1.98;;
69323;SDS011;56470;47.350;8.718;2023-12-20T11:15:21;3.40;;;1.43;;
69323;SDS011;56470;47.350;8.718;2023-12-20T11:17:54;4.10;;;2.35;;
69323;SDS011;56470;47.350;8.718;2023-12-20T11:20:21;3.70;;;1.75;;
69323;SDS011;56470;47.350;8.718;2023-12-20T11:22:59;3.95;;;1.67;;
69323;SDS011;56470;47.350;8.718;2023-12-20T11:25:25;4.60;;;2.00;;
69323;SDS011;56470;47.350;8.718;2023-12-20T11:28:07;4.97;;;1.63;;
69323;SDS011;56470;47.350;8.718;2023-12-20T11:30:56;4.22;;;1.85;;
69323;SDS011;56470;47.350;8.718;2023-12-20T11:33:26;3.90;;;1.80;;
69323;SDS011;56470;47.350;8.718;2023-12-20T11:36:01;3.83;;;1.83;;
69323;SDS011;56470;47.350;8.718;2023-12-20T11:38:27;6.38;;;2.50;;
69323;SDS011;56470;47.350;8.718;2023-12-20T11:41:00;5.20;;;2.38;;
69323;SDS011;56470;47.350;8.718;2023-12-20T11:43:32;4.38;;;2.20;;
69323;SDS011;56470;47.350;8.718;2023-12-20T11:46:07;4.50;;;2.10;;
69323;SDS011;56470;47.350;8.718;2023-12-20T11:48:37;4.88;;;2.47;;
69323;SDS011;56470;47.350;8.718;2023-12-20T11:51:12;6.60;;;2.67;;
69323;SDS011;56470;47.350;8.718;2023-12-20T11:53:38;4.00;;;2.40;;
69323;SDS011;56470;47.350;8.718;2023-12-20T11:56:08;4.55;;;2.15;;
69323;SDS011;56470;47.350;8.718;2023-12-20T11:58:33;5.03;;;2.27;;
69323;SDS011;56470;47.350;8.718;2023-12-20T12:00:59;5.25;;;2.50;;
69323;SDS011;56470;47.350;8.718;2023-12-20T12:03:24;4.90;;;2.43;;
69323;SDS011;56470;47.350;8.718;2023-12-20T12:05:50;4.05;;;2.00;;
69323;SDS011;56470;47.350;8.718;2023-12-20T12:08:16;3.97;;;2.40;;
69323;SDS011;56470;47.350;8.718;2023-12-20T12:10:42;5.55;;;2.88;;
69323;SDS011;56470;47.350;8.718;2023-12-20T12:13:08;5.28;;;2.75;;
69323;SDS011;56470;47.350;8.718;2023-12-20T12:15:34;4.13;;;2.43;;
69323;SDS011;56470;47.350;8.718;2023-12-20T12:18:00;3.80;;;2.08;;
69323;SDS011;56470;47.350;8.718;2023-12-20T12:20:26;3.77;;;2.40;;
69323;SDS011;56470;47.350;8.718;2023-12-20T12:23:01;5.30;;;2.97;;
69323;SDS011;56470;47.350;8.718;2023-12-20T12:25:31;5.30;;;3.10;;
69323;SDS011;56470;47.350;8.718;2023-12-20T12:28:00;5.23;;;2.87;;
69323;SDS011;56470;47.350;8.718;2023-12-20T12:30:25;4.82;;;2.60;;
69323;SDS011;56470;47.350;8.718;2023-12-20T12:32:52;6.40;;;2.53;;
69323;SDS011;56470;47.350;8.718;2023-12-20T12:35:17;6.15;;;2.78;;
69323;SDS011;56470;47.350;8.718;2023-12-20T12:37:43;5.30;;;2.85;;
69323;SDS011;56470;47.350;8.718;2023-12-20T12:40:12;5.73;;;2.33;;
69323;SDS011;56470;47.350;8.718;2023-12-20T12:42:38;4.30;;;1.90;;
69323;SDS011;56470;47.350;8.718;2023-12-20T12:45:05;5.43;;;2.00;;
69323;SDS011;56470;47.350;8.718;2023-12-20T12:47:30;3.80;;;1.77;;
69323;SDS011;56470;47.350;8.718;2023-12-20T12:49:56;4.00;;;2.07;;
69323;SDS011;56470;47.350;8.718;2023-12-20T12:52:21;3.33;;;1.67;;
69323;SDS011;56470;47.350;8.718;2023-12-20T12:54:47;4.47;;;2.53;;
69323;SDS011;56470;47.350;8.718;2023-12-20T12:57:13;3.97;;;1.83;;
69323;SDS011;56470;47.350;8.718;2023-12-20T12:59:40;4.00;;;1.80;;
69323;SDS011;56470;47.350;8.718;2023-12-20T13:02:06;3.70;;;1.80;;
69323;SDS011;56470;47.350;8.718;2023-12-20T13:04:31;3.33;;;1.67;;
69323;SDS011;56470;47.350;8.718;2023-12-20T13:06:56;4.30;;;2.00;;
69323;SDS011;56470;47.350;8.718;2023-12-20T13:09:22;4.03;;;1.97;;
69323;SDS011;56470;47.350;8.718;2023-12-20T13:11:48;3.33;;;1.70;;
69323;SDS011;56470;47.350;8.718;2023-12-20T13:14:13;3.40;;;1.77;;
69323;SDS011;56470;47.350;8.718;2023-12-20T13:16:40;3.25;;;1.23;;
69323;SDS011;56470;47.350;8.718;2023-12-20T13:19:07;3.13;;;1.38;;
69323;SDS011;56470;47.350;8.718;2023-12-20T13:21:32;3.20;;;1.53;;
69323;SDS011;56470;47.350;8.718;2023-12-20T13:23:57;5.37;;;1.77;;
69323;SDS011;56470;47.350;8.718;2023-12-20T13:26:23;3.07;;;1.67;;
69323;SDS011;56470;47.350;8.718;2023-12-20T13:28:48;3.10;;;1.30;;
69323;SDS011;56470;47.350;8.718;2023-12-20T13:31:13;2.70;;;1.20;;
69323;SDS011;56470;47.350;8.718;2023-12-20T13:33:39;3.23;;;1.40;;
69323;SDS011;56470;47.350;8.718;2023-12-20T13:36:05;3.28;;;1.77;;
69323;SDS011;56470;47.350;8.718;2023-12-20T13:38:31;3.20;;;1.37;;
69323;SDS011;56470;47.350;8.718;2023-12-20T13:40:56;6.07;;;1.80;;
69323;SDS011;56470;47.350;8.718;2023-12-20T13:43:23;3.30;;;1.45;;
69323;SDS011;56470;47.350;8.718;2023-12-20T13:45:49;2.40;;;1.20;;
69323;SDS011;56470;47.350;8.718;2023-12-20T13:48:15;2.73;;;1.37;;
69323;SDS011;56470;47.350;8.718;2023-12-20T13:50:40;2.43;;;1.23;;
69323;SDS011;56470;47.350;8.718;2023-12-20T13:53:05;3.10;;;1.60;;
69323;SDS011;56470;47.350;8.718;2023-12-20T13:55:31;2.93;;;1.67;;
69323;SDS011;56470;47.350;8.718;2023-12-20T13:57:56;3.23;;;1.43;;
69323;SDS011;56470;47.350;8.718;2023-12-20T14:00:22;4.25;;;1.42;;
69323;SDS011;56470;47.350;8.718;2023-12-20T14:02:48;2.63;;;1.20;;
69323;SDS011;56470;47.350;8.718;2023-12-20T14:05:14;3.73;;;1.20;;
69323;SDS011;56470;47.350;8.718;2023-12-20T14:07:42;2.42;;;1.23;;
69323;SDS011;56470;47.350;8.718;2023-12-20T14:10:09;2.95;;;1.40;;
69323;SDS011;56470;47.350;8.718;2023-12-20T14:12:36;4.07;;;1.80;;
69323;SDS011;56470;47.350;8.718;2023-12-20T14:15:03;3.10;;;1.65;;
69323;SDS011;56470;47.350;8.718;2023-12-20T14:17:28;4.57;;;1.97;;
69323;SDS011;56470;47.350;8.718;2023-12-20T14:19:54;3.97;;;1.70;;
69323;SDS011;56470;47.350;8.718;2023-12-20T14:22:19;3.05;;;1.65;;
69323;SDS011;56470;47.350;8.718;2023-12-20T14:24:45;4.40;;;1.90;;
69323;SDS011;56470;47.350;8.718;2023-12-20T14:27:10;3.77;;;1.87;;
69323;SDS011;56470;47.350;8.718;2023-12-20T14:29:36;4.27;;;1.87;;
69323;SDS011;56470;47.350;8.718;2023-12-20T14:32:02;3.42;;;1.60;;
69323;SDS011;56470;47.350;8.718;2023-12-20T14:34:28;4.10;;;1.60;;
69323;SDS011;56470;47.350;8.718;2023-12-20T14:36:54;2.37;;;1.07;;
69323;SDS011;56470;47.350;8.718;2023-12-20T14:39:19;3.47;;;1.80;;
69323;SDS011;56470;47.350;8.718;2023-12-20T14:41:44;3.17;;;1.60;;
69323;SDS011;56470;47.350;8.718;2023-12-20T14:44:10;4.17;;;1.73;;
69323;SDS011;56470;47.350;8.718;2023-12-20T14:46:35;3.40;;;1.70;;
69323;SDS011;56470;47.350;8.718;2023-12-20T14:49:00;4.00;;;1.87;;
69323;SDS011;56470;47.350;8.718;2023-12-20T14:51:27;3.38;;;0.98;;
69323;SDS011;56470;47.350;8.718;2023-12-20T14:53:53;4.63;;;1.70;;
69323;SDS011;56470;47.350;8.718;2023-12-20T14:56:18;6.35;;;1.30;;
69323;SDS011;56470;47.350;8.718;2023-12-20T14:58:45;2.53;;;0.87;;
69323;SDS011;56470;47.350;8.718;2023-12-20T15:01:10;2.42;;;1.40;;
69323;SDS011;56470;47.350;8.718;2023-12-20T15:03:36;2.33;;;1.10;;
69323;SDS011;56470;47.350;8.718;2023-12-20T15:06:01;3.17;;;1.50;;
69323;SDS011;56470;47.350;8.718;2023-12-20T15:08:27;3.67;;;1.45;;
69323;SDS011;56470;47.350;8.718;2023-12-20T15:10:52;2.40;;;1.20;;
69323;SDS011;56470;47.350;8.718;2023-12-20T15:13:17;3.77;;;1.60;;
69323;SDS011;56470;47.350;8.718;2023-12-20T15:15:43;2.80;;;1.43;;
69323;SDS011;56470;47.350;8.718;2023-12-20T15:18:08;3.20;;;1.20;;
69323;SDS011;56470;47.350;8.718;2023-12-20T15:20:33;7.13;;;1.40;;
69323;SDS011;56470;47.350;8.718;2023-12-20T15:23:01;3.45;;;1.50;;
69323;SDS011;56470;47.350;8.718;2023-12-20T15:25:32;4.47;;;1.30;;
69323;SDS011;56470;47.350;8.718;2023-12-20T15:27:57;2.27;;;1.47;;
69323;SDS011;56470;47.350;8.718;2023-12-20T15:30:22;4.10;;;1.60;;
69323;SDS011;56470;47.350;8.718;2023-12-20T15:32:51;3.58;;;1.20;;
69323;SDS011;56470;47.350;8.718;2023-12-20T15:35:16;3.20;;;1.40;;
69323;SDS011;56470;47.350;8.718;2023-12-20T15:37:42;3.92;;;1.23;;
69323;SDS011;56470;47.350;8.718;2023-12-20T15:40:07;5.00;;;1.53;;
69323;SDS011;56470;47.350;8.718;2023-12-20T15:42:37;3.13;;;1.35;;
69323;SDS011;56470;47.350;8.718;2023-12-20T15:45:03;4.47;;;1.30;;
69323;SDS011;56470;47.350;8.718;2023-12-20T15:47:29;3.67;;;1.00;;
69323;SDS011;56470;47.350;8.718;2023-12-20T15:49:55;3.50;;;1.60;;
69323;SDS011;56470;47.350;8.718;2023-12-20T15:52:20;3.83;;;1.37;;
69323;SDS011;56470;47.350;8.718;2023-12-20T15:54:45;4.07;;;1.60;;
69323;SDS011;56470;47.350;8.718;2023-12-20T15:57:12;4.78;;;1.27;;
69323;SDS011;56470;47.350;8.718;2023-12-20T15:59:40;4.10;;;1.40;;
69323;SDS011;56470;47.350;8.718;2023-12-20T16:02:05;3.72;;;1.42;;
69323;SDS011;56470;47.350;8.718;2023-12-20T16:04:31;4.70;;;1.40;;
69323;SDS011;56470;47.350;8.718;2023-12-20T16:06:56;4.77;;;1.80;;
69323;SDS011;56470;47.350;8.718;2023-12-20T16:09:21;4.13;;;1.97;;
69323;SDS011;56470;47.350;8.718;2023-12-20T16:11:47;4.73;;;2.20;;
69323;SDS011;56470;47.350;8.718;2023-12-20T16:14:12;4.55;;;1.17;;
69323;SDS011;56470;47.350;8.718;2023-12-20T16:16:46;3.70;;;1.60;;
69323;SDS011;56470;47.350;8.718;2023-12-20T16:19:12;5.82;;;1.77;;
69323;SDS011;56470;47.350;8.718;2023-12-20T16:21:38;6.40;;;2.13;;
69323;SDS011;56470;47.350;8.718;2023-12-20T16:24:03;4.90;;;1.87;;
69323;SDS011;56470;47.350;8.718;2023-12-20T16:26:30;4.30;;;1.67;;
69323;SDS011;56470;47.350;8.718;2023-12-20T16:28:55;6.27;;;2.07;;
69323;SDS011;56470;47.350;8.718;2023-12-20T16:34:31;5.18;;;1.77;;
69323;SDS011;56470;47.350;8.718;2023-12-20T16:37:40;6.50;;;1.73;;
69323;SDS011;56470;47.350;8.718;2023-12-20T16:40:42;6.25;;;2.25;;
69323;SDS011;56470;47.350;8.718;2023-12-20T16:46:41;5.72;;;1.80;;
69323;SDS011;56470;47.350;8.718;2023-12-20T16:52:26;3.50;;;1.60;;
69323;SDS011;56470;47.350;8.718;2023-12-20T16:55:17;4.72;;;1.80;;
69323;SDS011;56470;47.350;8.718;2023-12-20T16:58:29;4.82;;;2.10;;
69323;SDS011;56470;47.350;8.718;2023-12-20T17:01:14;3.85;;;1.75;;
69323;SDS011;56470;47.350;8.718;2023-12-20T17:03:52;5.30;;;1.55;;
69323;SDS011;56470;47.350;8.718;2023-12-20T17:20:44;3.63;;;1.52;;
69323;SDS011;56470;47.350;8.718;2023-12-20T17:23:18;1.93;;;1.10;;
69323;SDS011;56470;47.350;8.718;2023-12-20T17:25:44;3.53;;;1.58;;
69323;SDS011;56470;47.350;8.718;2023-12-20T17:36:59;3.72;;;1.83;;
69323;SDS011;56470;47.350;8.718;2023-12-20T17:42:54;3.90;;;1.70;;
69323;SDS011;56470;47.350;8.718;2023-12-20T17:45:29;3.05;;;1.70;;
69323;SDS011;56470;47.350;8.718;2023-12-20T17:51:49;4.53;;;1.60;;
69323;SDS011;56470;47.350;8.718;2023-12-20T17:54:40;5.22;;;1.58;;
69323;SDS011;56470;47.350;8.718;2023-12-20T18:06:56;4.95;;;2.13;;
69323;SDS011;56470;47.350;8.718;2023-12-20T18:16:59;4.75;;;1.98;;
69323;SDS011;56470;47.350;8.718;2023-12-20T18:26:02;5.07;;;2.05;;
69323;SDS011;56470;47.350;8.718;2023-12-20T18:28:27;6.33;;;2.13;;
69323;SDS011;56470;47.350;8.718;2023-12-20T18:30:53;4.93;;;1.90;;
69323;SDS011;56470;47.350;8.718;2023-12-20T18:33:18;4.77;;;2.13;;
69323;SDS011;56470;47.350;8.718;2023-12-20T18:35:43;7.22;;;3.35;;
69323;SDS011;56470;47.350;8.718;2023-12-20T18:38:10;6.03;;;2.47;;
69323;SDS011;56470;47.350;8.718;2023-12-20T18:40:35;5.07;;;2.45;;
69323;SDS011;56470;47.350;8.718;2023-12-20T18:43:01;7.13;;;2.50;;
69323;SDS011;56470;47.350;8.718;2023-12-20T18:45:28;3.90;;;2.00;;
69323;SDS011;56470;47.350;8.718;2023-12-20T18:47:54;2.17;;;1.50;;
69323;SDS011;56470;47.350;8.718;2023-12-20T18:50:19;3.57;;;2.03;;
69323;SDS011;56470;47.350;8.718;2023-12-20T18:52:45;8.30;;;1.87;;
69323;SDS011;56470;47.350;8.718;2023-12-20T18:55:10;7.70;;;2.53;;
69323;SDS011;56470;47.350;8.718;2023-12-20T18:57:35;3.30;;;1.67;;
69323;SDS011;56470;47.350;8.718;2023-12-20T19:00:01;3.72;;;1.67;;
69323;SDS011;56470;47.350;8.718;2023-12-20T19:02:26;3.80;;;2.03;;
69323;SDS011;56470;47.350;8.718;2023-12-20T19:04:55;6.05;;;1.92;;
69323;SDS011;56470;47.350;8.718;2023-12-20T19:07:21;4.73;;;1.83;;
69323;SDS011;56470;47.350;8.718;2023-12-20T19:09:46;5.50;;;2.00;;
69323;SDS011;56470;47.350;8.718;2023-12-20T19:12:11;5.73;;;1.83;;
69323;SDS011;56470;47.350;8.718;2023-12-20T19:14:37;2.87;;;1.57;;
69323;SDS011;56470;47.350;8.718;2023-12-20T19:17:02;4.87;;;1.80;;
69323;SDS011;56470;47.350;8.718;2023-12-20T19:19:29;3.88;;;1.63;;
69323;SDS011;56470;47.350;8.718;2023-12-20T19:21:54;5.60;;;1.80;;
69323;SDS011;56470;47.350;8.718;2023-12-20T19:24:19;3.00;;;1.40;;
69323;SDS011;56470;47.350;8.718;2023-12-20T19:26:45;4.25;;;1.75;;
69323;SDS011;56470;47.350;8.718;2023-12-20T19:29:11;3.83;;;1.67;;
69323;SDS011;56470;47.350;8.718;2023-12-20T19:31:36;4.87;;;1.90;;
69323;SDS011;56470;47.350;8.718;2023-12-20T19:34:01;4.20;;;1.90;;
69323;SDS011;56470;47.350;8.718;2023-12-20T19:36:26;5.00;;;1.80;;
69323;SDS011;56470;47.350;8.718;2023-12-20T19:38:52;2.73;;;1.70;;
69323;SDS011;56470;47.350;8.718;2023-12-20T19:41:18;3.15;;;1.65;;
69323;SDS011;56470;47.350;8.718;2023-12-20T19:43:43;3.87;;;1.40;;
69323;SDS011;56470;47.350;8.718;2023-12-20T19:46:08;4.23;;;1.50;;
69323;SDS011;56470;47.350;8.718;2023-12-20T19:48:34;2.75;;;1.33;;
69323;SDS011;56470;47.350;8.718;2023-12-20T19:50:59;3.20;;;1.63;;
69323;SDS011;56470;47.350;8.718;2023-12-20T19:53:24;3.47;;;2.00;;
69323;SDS011;56470;47.350;8.718;2023-12-20T19:55:51;4.57;;;1.95;;
69323;SDS011;56470;47.350;8.718;2023-12-20T19:58:17;3.93;;;1.83;;
69323;SDS011;56470;47.350;8.718;2023-12-20T20:00:42;2.67;;;1.47;;
69323;SDS011;56470;47.350;8.718;2023-12-20T20:03:07;3.47;;;1.70;;
69323;SDS011;56470;47.350;8.718;2023-12-20T20:05:35;4.13;;;1.73;;
69323;SDS011;56470;47.350;8.718;2023-12-20T20:08:13;3.97;;;1.67;;
69323;SDS011;56470;47.350;8.718;2023-12-20T20:10:38;3.15;;;1.33;;
69323;SDS011;56470;47.350;8.718;2023-12-20T20:13:04;2.40;;;1.50;;
69323;SDS011;56470;47.350;8.718;2023-12-20T20:15:29;3.90;;;1.87;;
69323;SDS011;56470;47.350;8.718;2023-12-20T20:17:55;4.30;;;1.50;;
69323;SDS011;56470;47.350;8.718;2023-12-20T20:20:20;4.33;;;1.47;;
69323;SDS011;56470;47.350;8.718;2023-12-20T20:22:45;3.78;;;1.55;;
69323;SDS011;56470;47.350;8.718;2023-12-20T20:25:11;5.03;;;1.77;;
69323;SDS011;56470;47.350;8.718;2023-12-20T20:27:36;4.00;;;1.47;;
69323;SDS011;56470;47.350;8.718;2023-12-20T20:30:02;4.25;;;1.70;;
69323;SDS011;56470;47.350;8.718;2023-12-20T20:32:28;2.80;;;1.37;;
69323;SDS011;56470;47.350;8.718;2023-12-20T20:34:54;2.88;;;1.42;;
69323;SDS011;56470;47.350;8.718;2023-12-20T20:37:19;3.87;;;1.70;;
69323;SDS011;56470;47.350;8.718;2023-12-20T20:39:44;3.17;;;1.60;;
69323;SDS011;56470;47.350;8.718;2023-12-20T20:42:10;1.93;;;1.10;;
69323;SDS011;56470;47.350;8.718;2023-12-20T20:44:35;3.10;;;1.60;;
69323;SDS011;56470;47.350;8.718;2023-12-20T20:47:01;3.60;;;1.67;;
69323;SDS011;56470;47.350;8.718;2023-12-20T20:49:26;3.13;;;1.07;;
69323;SDS011;56470;47.350;8.718;2023-12-20T20:51:53;4.32;;;1.40;;
69323;SDS011;56470;47.350;8.718;2023-12-20T20:54:19;3.15;;;1.48;;
69323;SDS011;56470;47.350;8.718;2023-12-20T20:56:45;4.50;;;1.93;;
69323;SDS011;56470;47.350;8.718;2023-12-20T20:59:10;3.28;;;1.60;;
69323;SDS011;56470;47.350;8.718;2023-12-20T21:01:36;3.50;;;1.37;;
69323;SDS011;56470;47.350;8.718;2023-12-20T21:04:01;3.27;;;1.27;;
69323;SDS011;56470;47.350;8.718;2023-12-20T21:06:27;2.67;;;1.20;;
69323;SDS011;56470;47.350;8.718;2023-12-20T21:08:54;2.50;;;1.40;;
69323;SDS011;56470;47.350;8.718;2023-12-20T21:11:22;3.28;;;1.40;;
69323;SDS011;56470;47.350;8.718;2023-12-20T21:13:47;3.03;;;1.40;;
69323;SDS011;56470;47.350;8.718;2023-12-20T21:16:17;2.20;;;1.00;;
69323;SDS011;56470;47.350;8.718;2023-12-20T21:18:43;3.10;;;1.20;;
69323;SDS011;56470;47.350;8.718;2023-12-20T21:21:11;3.60;;;1.58;;
69323;SDS011;56470;47.350;8.718;2023-12-20T21:23:37;2.53;;;1.35;;
69323;SDS011;56470;47.350;8.718;2023-12-20T21:26:03;4.03;;;1.30;;
69323;SDS011;56470;47.350;8.718;2023-12-20T21:28:33;4.55;;;1.10;;
69323;SDS011;56470;47.350;8.718;2023-12-20T21:30:59;3.95;;;1.60;;
69323;SDS011;56470;47.350;8.718;2023-12-20T21:33:25;4.30;;;1.63;;
69323;SDS011;56470;47.350;8.718;2023-12-20T21:35:50;2.73;;;1.70;;
69323;SDS011;56470;47.350;8.718;2023-12-20T21:38:15;3.43;;;1.73;;
69323;SDS011;56470;47.350;8.718;2023-12-20T21:40:41;2.70;;;1.10;;
69323;SDS011;56470;47.350;8.718;2023-12-20T21:43:06;2.50;;;1.43;;
69323;SDS011;56470;47.350;8.718;2023-12-20T21:45:32;4.35;;;1.40;;
69323;SDS011;56470;47.350;8.718;2023-12-20T21:47:57;4.40;;;1.23;;
69323;SDS011;56470;47.350;8.718;2023-12-20T21:50:23;2.83;;;1.10;;
69323;SDS011;56470;47.350;8.718;2023-12-20T21:52:48;4.40;;;1.33;;
69323;SDS011;56470;47.350;8.718;2023-12-20T21:55:13;2.47;;;1.20;;
69323;SDS011;56470;47.350;8.718;2023-12-20T21:57:39;3.43;;;1.20;;
69323;SDS011;56470;47.350;8.718;2023-12-20T22:00:05;3.60;;;1.02;;
69323;SDS011;56470;47.350;8.718;2023-12-20T22:02:32;3.17;;;1.47;;
69323;SDS011;56470;47.350;8.718;2023-12-20T22:04:58;2.80;;;1.08;;
69323;SDS011;56470;47.350;8.718;2023-12-20T22:07:24;2.60;;;1.25;;
69323;SDS011;56470;47.350;8.718;2023-12-20T22:09:49;3.37;;;1.40;;
69323;SDS011;56470;47.350;8.718;2023-12-20T22:12:15;4.67;;;2.00;;
69323;SDS011;56470;47.350;8.718;2023-12-20T22:14:40;3.77;;;1.77;;